Terminal Aerodrome Forecast
Issued by NWS Bismarck, ND

Home | Current Version | Previous Version | Graphics & Text | Print | Product List | Glossary On
Versions: 1 2 3 4 5 6 7 8 9 10 11 12 13 14 15 16 17 18
000
FTUS43 KBIS 280948 AAA
TAFISN
TAF AMD
KISN 280948Z 2810/2906 24025G35KT P6SM OVC012
     FM281500 24020G35KT P6SM -SHRA OVC025
     FM281800 28035G50KT P6SM -SHRA OVC025
     FM290200 28020G30KT P6SM VCSH BKN050 OVC080=

USA.gov is the U.S. government's official web portal to all federal, state and local government web resources and services.